createdAt,value
2018-06-23T00:01:04.790Z,0
2018-06-23T00:02:09.393Z,0
2018-06-23T00:03:14.835Z,0
2018-06-23T00:04:19.682Z,0
2018-06-23T00:05:25.127Z,0
2018-06-23T00:06:30.746Z,0
2018-06-23T00:07:35.912Z,0
2018-06-23T00:08:41.077Z,0
2018-06-23T00:09:46.884Z,0
2018-06-23T00:10:52.053Z,0
2018-06-23T00:11:57.210Z,0
2018-06-23T00:13:02.448Z,0
2018-06-23T00:14:07.044Z,0
2018-06-23T00:15:12.212Z,0
2018-06-23T00:16:17.611Z,0
2018-06-23T00:17:23.054Z,0
2018-06-23T00:18:28.326Z,0
2018-06-23T00:19:33.482Z,0
2018-06-23T00:20:38.396Z,0
2018-06-23T00:21:44.248Z,0
2018-06-23T00:22:49.413Z,0
2018-06-23T00:23:54.566Z,0
2018-06-23T00:25:00.124Z,0
2018-06-23T00:26:05.000Z,0
2018-06-23T00:27:09.879Z,0
2018-06-23T00:28:15.321Z,0
2018-06-23T00:29:20.202Z,0
2018-06-23T00:30:25.941Z,0
2018-06-23T00:31:31.101Z,0
2018-06-23T00:32:35.982Z,0
2018-06-23T00:33:41.693Z,0
2018-06-23T00:34:46.871Z,0
2018-06-23T00:35:52.058Z,0
2018-06-23T00:36:57.771Z,0
2018-06-23T00:38:02.654Z,0
2018-06-23T00:39:07.254Z,0
2018-06-23T00:40:12.681Z,0
2018-06-23T00:41:17.850Z,0
2018-06-23T00:42:22.443Z,0
2018-06-23T00:43:28.013Z,0
2018-06-23T00:44:33.160Z,0
2018-06-23T00:45:38.735Z,0
2018-06-23T00:46:44.188Z,0
2018-06-23T00:47:49.356Z,0
2018-06-23T00:48:54.776Z,0
2018-06-23T00:49:59.376Z,0
2018-06-23T00:51:03.676Z,0
2018-06-23T00:52:09.463Z,0
2018-06-23T00:53:14.638Z,0
2018-06-23T00:54:19.829Z,0
2018-06-23T00:55:25.520Z,0
2018-06-23T00:56:30.447Z,0
2018-06-23T00:57:35.709Z,0
2018-06-23T00:58:41.184Z,0
2018-06-23T00:59:46.347Z,0
2018-06-23T01:00:51.890Z,0
2018-06-23T01:01:57.033Z,0
2018-06-23T01:03:02.203Z,0
2018-06-23T01:04:07.905Z,0
2018-06-23T01:05:12.783Z,0
2018-06-23T01:06:17.955Z,0
2018-06-23T01:07:23.758Z,0
2018-06-23T01:08:28.637Z,0
2018-06-23T01:09:34.476Z,0
2018-06-23T01:10:39.941Z,0
2018-06-23T01:11:44.846Z,0
2018-06-23T01:12:50.642Z,0
2018-06-23T01:13:55.539Z,0
2018-06-23T01:15:00.723Z,0
2018-06-23T01:16:05.959Z,0
2018-06-23T01:17:10.293Z,0
2018-06-23T01:18:14.618Z,0
2018-06-23T01:19:20.038Z,0
2018-06-23T01:20:25.207Z,0
2018-06-23T01:21:30.405Z,0
2018-06-23T01:22:35.588Z,0
2018-06-23T01:23:41.038Z,0
2018-06-23T01:24:46.202Z,0
2018-06-23T01:25:50.798Z,0
2018-06-23T01:26:55.979Z,0
2018-06-23T01:28:01.783Z,0
2018-06-23T01:29:06.654Z,0
2018-06-23T01:30:11.849Z,0
2018-06-23T01:31:17.318Z,0
2018-06-23T01:32:22.761Z,0
2018-06-23T01:33:28.245Z,0
2018-06-23T01:34:33.395Z,0
2018-06-23T01:35:38.293Z,0
2018-06-23T01:36:43.719Z,0
2018-06-23T01:37:48.872Z,0
2018-06-23T01:38:54.319Z,0
2018-06-23T01:39:59.743Z,0
2018-06-23T01:41:04.898Z,0
2018-06-23T01:42:09.770Z,0
2018-06-23T01:43:15.472Z,0
2018-06-23T01:44:20.913Z,0
2018-06-23T01:45:41.083Z,0
2018-06-23T01:46:46.251Z,0
2018-06-23T01:47:51.696Z,0
2018-06-23T01:48:57.112Z,0
2018-06-23T01:50:01.997Z,0
2018-06-23T01:51:06.608Z,0
2018-06-23T01:52:12.501Z,0
2018-06-23T01:53:17.397Z,0
2018-06-23T01:54:23.035Z,0
2018-06-23T01:55:27.710Z,0
2018-06-23T01:56:33.151Z,0
2018-06-23T01:57:38.002Z,0
2018-06-23T01:58:43.171Z,0
2018-06-23T01:59:48.050Z,0
2018-06-23T02:00:53.197Z,0
2018-06-23T02:01:58.713Z,0
2018-06-23T02:03:03.862Z,0
2018-06-23T02:04:09.712Z,0
2018-06-23T02:05:14.645Z,0
2018-06-23T02:06:20.066Z,0
2018-06-23T02:07:25.815Z,0
2018-06-23T02:08:31.002Z,0
2018-06-23T02:09:35.854Z,0
2018-06-23T02:10:41.301Z,0
2018-06-23T02:11:46.482Z,0
2018-06-23T02:12:51.884Z,0
2018-06-23T02:13:57.330Z,0
2018-06-23T02:15:02.194Z,0
2018-06-23T02:16:07.185Z,0
2018-06-23T02:17:12.066Z,0
2018-06-23T02:18:17.273Z,0
2018-06-23T02:19:22.969Z,0
2018-06-23T02:20:28.137Z,0
2018-06-23T02:21:34.037Z,0
2018-06-23T02:22:39.196Z,0
2018-06-23T02:23:44.662Z,0
2018-06-23T02:24:50.066Z,0
2018-06-23T02:25:55.534Z,0
2018-06-23T02:27:00.980Z,0
2018-06-23T02:28:06.094Z,0
2018-06-23T02:29:10.979Z,0
2018-06-23T02:30:15.586Z,0
2018-06-23T02:31:20.433Z,0
2018-06-23T02:32:25.882Z,0
2018-06-23T02:33:31.878Z,0
2018-06-23T02:34:36.759Z,0
2018-06-23T02:35:41.632Z,0
2018-06-23T02:36:47.145Z,0
2018-06-23T02:37:52.315Z,0
2018-06-23T02:38:57.759Z,0
2018-06-23T02:40:02.768Z,0
2018-06-23T02:41:07.926Z,0
2018-06-23T02:42:13.094Z,0
2018-06-23T02:43:18.780Z,0
2018-06-23T02:44:23.955Z,0
2018-06-23T02:45:29.194Z,0
2018-06-23T02:46:34.668Z,0
2018-06-23T02:47:39.824Z,0
2018-06-23T02:48:44.965Z,0
2018-06-23T02:49:50.133Z,0
2018-06-23T02:50:55.572Z,0
2018-06-23T02:52:01.371Z,0
2018-06-23T02:53:06.017Z,0
2018-06-23T02:54:11.461Z,0
2018-06-23T02:55:16.866Z,0
2018-06-23T02:56:22.036Z,0
2018-06-23T02:57:27.721Z,0
2018-06-23T02:58:32.865Z,0
2018-06-23T02:59:37.745Z,0
2018-06-23T03:00:43.260Z,0
2018-06-23T03:01:47.313Z,0
2018-06-23T03:02:52.777Z,0
2018-06-23T03:03:58.002Z,0
2018-06-23T03:05:02.594Z,0
2018-06-23T03:06:07.760Z,0
2018-06-23T03:07:12.669Z,0
2018-06-23T03:08:17.547Z,0
2018-06-23T03:09:22.984Z,0
2018-06-23T03:10:28.321Z,0
2018-06-23T03:11:33.515Z,0
2018-06-23T03:12:38.747Z,0
2018-06-23T03:13:44.230Z,0
2018-06-23T03:14:49.381Z,0
2018-06-23T03:15:54.904Z,0
2018-06-23T03:17:00.378Z,0
2018-06-23T03:18:05.544Z,0
2018-06-23T03:19:10.494Z,0
2018-06-23T03:20:15.654Z,0
2018-06-23T03:21:20.266Z,0
2018-06-23T03:22:25.839Z,0
2018-06-23T03:23:30.451Z,0
2018-06-23T03:24:35.866Z,0
2018-06-23T03:25:41.338Z,0
2018-06-23T03:26:46.505Z,0
2018-06-23T03:27:52.359Z,0
2018-06-23T03:28:57.839Z,0
2018-06-23T03:30:02.449Z,0
2018-06-23T03:31:07.408Z,0
2018-06-23T03:32:12.599Z,0
2018-06-23T03:33:17.773Z,0
2018-06-23T03:34:23.328Z,0
2018-06-23T03:35:28.778Z,0
2018-06-23T03:36:34.720Z,0
2018-06-23T03:37:39.895Z,0
2018-06-23T03:38:45.346Z,0
2018-06-23T03:39:50.631Z,0
2018-06-23T03:40:55.803Z,0
2018-06-23T03:42:00.978Z,0
2018-06-23T03:43:05.846Z,0
2018-06-23T03:44:10.437Z,0
2018-06-23T03:45:15.926Z,0
2018-06-23T03:46:21.492Z,0
2018-06-23T03:47:26.659Z,0
2018-06-23T03:48:32.751Z,0
2018-06-23T03:49:37.912Z,0
2018-06-23T03:50:43.078Z,0
2018-06-23T03:51:48.964Z,0
2018-06-23T03:52:54.409Z,0
2018-06-23T03:53:59.588Z,0
2018-06-23T03:55:05.550Z,0
2018-06-23T03:56:10.723Z,0
2018-06-23T03:57:16.161Z,0
2018-06-23T03:58:21.698Z,0
2018-06-23T03:59:26.866Z,0
2018-06-23T04:00:32.463Z,0
2018-06-23T04:01:37.900Z,0
2018-06-23T04:02:43.341Z,0
2018-06-23T04:03:48.789Z,0
2018-06-23T04:04:53.944Z,0
2018-06-23T04:05:59.389Z,0
2018-06-23T04:07:05.187Z,0
2018-06-23T04:08:10.395Z,0
2018-06-23T04:09:14.987Z,0
2018-06-23T04:10:19.990Z,0
2018-06-23T04:11:25.303Z,0
2018-06-23T04:12:31.352Z,0
2018-06-23T04:13:36.519Z,0
2018-06-23T04:14:41.965Z,0
2018-06-23T04:15:47.528Z,0
2018-06-23T04:16:52.954Z,0
2018-06-23T04:17:57.428Z,0
2018-06-23T04:19:02.308Z,0
2018-06-23T04:20:07.801Z,0
2018-06-23T04:21:12.399Z,0
2018-06-23T04:22:17.819Z,0
2018-06-23T04:23:23.273Z,0
2018-06-23T04:24:29.419Z,0
2018-06-23T04:25:34.302Z,0
2018-06-23T04:26:39.492Z,6
2018-06-23T04:27:44.642Z,6
2018-06-23T04:28:49.823Z,6
2018-06-23T04:29:54.997Z,6
2018-06-23T04:31:00.145Z,6
2018-06-23T04:32:05.584Z,24
2018-06-23T04:33:11.027Z,24
2018-06-23T04:34:16.479Z,40
2018-06-23T04:35:21.936Z,40
2018-06-23T04:36:27.660Z,40
2018-06-23T04:37:32.851Z,40
2018-06-23T04:38:38.022Z,40
2018-06-23T04:39:42.882Z,40
2018-06-23T04:40:47.770Z,24
2018-06-23T04:41:52.941Z,24
2018-06-23T04:42:58.392Z,24
2018-06-23T04:44:02.719Z,24
2018-06-23T04:45:07.610Z,24
2018-06-23T04:46:13.465Z,24
2018-06-23T04:47:18.912Z,24
2018-06-23T04:49:44.737Z,24
2018-06-23T04:50:50.163Z,24
2018-06-23T04:51:55.595Z,24
2018-06-23T04:53:00.755Z,6
2018-06-23T04:54:05.388Z,6
2018-06-23T04:55:10.931Z,24
2018-06-23T04:56:16.363Z,24
2018-06-23T04:57:21.541Z,24
2018-06-23T04:58:41.445Z,24
2018-06-23T04:59:46.628Z,24
2018-06-23T05:00:51.157Z,24
2018-06-23T05:01:56.310Z,24
2018-06-23T05:03:01.912Z,40
2018-06-23T05:04:06.296Z,40
2018-06-23T05:05:11.464Z,40
2018-06-23T05:06:16.328Z,40
2018-06-23T05:07:22.122Z,40
2018-06-23T05:08:26.993Z,55
2018-06-23T05:09:32.669Z,55
2018-06-23T05:10:37.300Z,48
2018-06-23T05:11:42.202Z,48
2018-06-23T05:12:47.888Z,48
2018-06-23T05:13:53.335Z,55
2018-06-23T05:14:58.521Z,40
2018-06-23T05:16:03.455Z,40
2018-06-23T05:17:08.896Z,40
2018-06-23T05:18:13.790Z,24
2018-06-23T05:19:19.487Z,24
2018-06-23T05:20:24.635Z,24
2018-06-23T05:21:29.603Z,24
2018-06-23T05:22:34.753Z,24
2018-06-23T05:23:40.193Z,40
2018-06-23T05:24:46.136Z,40
2018-06-23T05:25:51.331Z,24
2018-06-23T05:26:55.963Z,24
2018-06-23T05:28:01.818Z,24
2018-06-23T05:29:06.428Z,24
2018-06-23T05:30:11.888Z,24
2018-06-23T05:31:17.301Z,24
2018-06-23T05:32:22.739Z,24
2018-06-23T05:33:28.321Z,24
2018-06-23T05:34:33.481Z,6
2018-06-23T05:35:38.654Z,24
2018-06-23T05:36:44.467Z,24
2018-06-23T05:37:49.846Z,24
2018-06-23T05:38:55.477Z,24
2018-06-23T05:40:01.180Z,24
2018-06-23T05:41:06.065Z,24
2018-06-23T05:42:11.225Z,24
2018-06-23T05:43:16.722Z,24
2018-06-23T05:44:21.889Z,40
2018-06-23T05:45:27.145Z,40
2018-06-23T05:46:32.320Z,40
2018-06-23T05:47:37.932Z,40
2018-06-23T05:48:43.732Z,40
2018-06-23T05:49:48.900Z,40
2018-06-23T05:50:54.344Z,24
2018-06-23T05:51:59.902Z,24
2018-06-23T05:53:05.343Z,24
2018-06-23T05:54:10.787Z,24
2018-06-23T05:55:16.315Z,24
2018-06-23T05:56:21.877Z,40
2018-06-23T05:57:27.766Z,40
2018-06-23T05:58:32.926Z,24
2018-06-23T05:59:38.093Z,40
2018-06-23T06:00:43.413Z,40
2018-06-23T06:01:48.389Z,40
2018-06-23T06:02:53.827Z,40
2018-06-23T06:03:59.237Z,40
2018-06-23T06:05:04.460Z,40
2018-06-23T06:06:09.057Z,40
2018-06-23T06:07:14.851Z,40
2018-06-23T06:08:20.013Z,40
2018-06-23T06:09:24.915Z,40
2018-06-23T06:10:30.856Z,40
2018-06-23T06:11:36.296Z,55
2018-06-23T06:12:41.444Z,55
2018-06-23T06:13:46.894Z,55
2018-06-23T06:14:52.331Z,40
2018-06-23T06:15:57.832Z,40
2018-06-23T06:17:03.003Z,40
2018-06-23T06:18:08.192Z,40
2018-06-23T06:19:13.758Z,40
2018-06-23T06:20:18.927Z,40
2018-06-23T06:21:24.119Z,40
2018-06-23T06:22:29.926Z,40
2018-06-23T06:23:35.108Z,40
2018-06-23T06:24:40.805Z,40
2018-06-23T06:25:46.264Z,40
2018-06-23T06:26:51.710Z,40
2018-06-23T06:27:57.405Z,24
2018-06-23T06:29:02.020Z,24
2018-06-23T06:30:07.184Z,24
2018-06-23T06:31:12.698Z,24
2018-06-23T06:32:17.884Z,24
2018-06-23T06:33:23.052Z,24
2018-06-23T06:34:28.546Z,24
2018-06-23T06:35:33.797Z,24
2018-06-23T06:36:39.427Z,24
2018-06-23T06:37:44.323Z,24
2018-06-23T06:38:49.472Z,24
2018-06-23T06:39:55.340Z,24
2018-06-23T06:41:00.777Z,40
2018-06-23T06:42:05.657Z,40
2018-06-23T06:43:11.061Z,40
2018-06-23T06:44:16.508Z,40
2018-06-23T06:45:21.388Z,55
2018-06-23T06:46:41.560Z,55
2018-06-23T06:47:47.025Z,55
2018-06-23T06:48:52.592Z,55
2018-06-23T06:49:57.572Z,71
2018-06-23T06:51:02.474Z,48
2018-06-23T06:52:07.040Z,55
2018-06-23T06:53:12.219Z,40
2018-06-23T06:54:17.405Z,40
2018-06-23T06:55:23.089Z,55
2018-06-23T06:56:27.712Z,55
2018-06-23T06:57:33.619Z,55
2018-06-23T06:58:38.502Z,55
2018-06-23T06:59:43.666Z,55
2018-06-23T07:00:49.094Z,55
2018-06-23T07:01:54.273Z,55
2018-06-23T07:02:59.715Z,55
2018-06-23T07:04:05.411Z,55
2018-06-23T07:05:10.281Z,55
2018-06-23T07:06:15.205Z,55
2018-06-23T07:07:20.332Z,55
2018-06-23T07:08:25.775Z,55
2018-06-23T07:09:31.187Z,40
2018-06-23T07:10:36.637Z,40
2018-06-23T07:11:42.019Z,40
2018-06-23T07:12:47.963Z,40
2018-06-23T07:13:53.128Z,40
2018-06-23T07:14:58.318Z,40
2018-06-23T07:16:04.184Z,40
2018-06-23T07:17:08.790Z,40
2018-06-23T07:18:13.675Z,40
2018-06-23T07:19:19.239Z,40
2018-06-23T07:20:24.460Z,40
2018-06-23T07:21:30.134Z,40
2018-06-23T07:22:35.590Z,55
2018-06-23T07:23:40.601Z,55
2018-06-23T07:24:46.714Z,55
2018-06-23T07:25:52.165Z,55
2018-06-23T07:26:57.275Z,55
2018-06-23T07:28:02.605Z,55
2018-06-23T07:29:06.940Z,55
2018-06-23T07:30:12.121Z,48
2018-06-23T07:31:17.534Z,48
2018-06-23T07:32:22.970Z,48
2018-06-23T07:33:28.210Z,71
2018-06-23T07:34:34.213Z,71
2018-06-23T07:35:39.877Z,55
2018-06-23T07:36:45.682Z,55
2018-06-23T07:37:50.557Z,55
2018-06-23T07:38:55.443Z,55
2018-06-23T07:40:01.271Z,55
2018-06-23T07:41:05.872Z,40
2018-06-23T07:42:11.046Z,40
2018-06-23T07:43:16.451Z,40
2018-06-23T07:44:21.051Z,40
2018-06-23T07:45:26.078Z,55
2018-06-23T07:46:31.354Z,64
2018-06-23T07:47:36.208Z,64
2018-06-23T07:48:41.828Z,80
2018-06-23T07:49:46.997Z,64
2018-06-23T07:50:52.160Z,64
2018-06-23T07:51:57.295Z,64
2018-06-23T07:53:02.753Z,80
2018-06-23T07:54:07.664Z,96
2018-06-23T07:55:13.181Z,96
2018-06-23T07:56:18.907Z,96
2018-06-23T07:57:24.023Z,96
2018-06-23T07:58:44.520Z,80
2018-06-23T07:59:49.690Z,80
2018-06-23T08:00:55.248Z,96
2018-06-23T08:02:00.694Z,88
2018-06-23T08:03:05.011Z,88
2018-06-23T08:04:09.676Z,104
2018-06-23T08:05:14.849Z,88
2018-06-23T08:06:20.298Z,80
2018-06-23T08:07:25.812Z,80
2018-06-23T08:08:30.976Z,88
2018-06-23T08:09:36.828Z,121
2018-06-23T08:10:42.270Z,128
2018-06-23T08:11:47.653Z,145
2018-06-23T08:12:53.080Z,161
2018-06-23T08:13:57.976Z,169
2018-06-23T08:15:02.856Z,169
2018-06-23T08:16:07.707Z,169
2018-06-23T08:17:12.032Z,185
2018-06-23T08:18:17.476Z,225
2018-06-23T08:19:21.810Z,249
2018-06-23T08:20:27.254Z,249
2018-06-23T08:21:32.957Z,257
2018-06-23T08:22:38.123Z,306
2018-06-23T08:23:43.578Z,297
2018-06-23T08:24:49.028Z,306
2018-06-23T08:25:53.947Z,289
2018-06-23T08:26:59.157Z,240
2018-06-23T08:28:04.263Z,200
2018-06-23T08:29:09.442Z,176
2018-06-23T08:30:14.302Z,169
2018-06-23T08:31:19.723Z,169
2018-06-23T08:32:25.173Z,136
2018-06-23T08:33:30.788Z,145
2018-06-23T08:34:35.976Z,112
2018-06-23T08:35:41.421Z,145
2018-06-23T08:36:47.398Z,169
2018-06-23T08:37:53.335Z,185
2018-06-23T08:38:58.538Z,185
2018-06-23T08:40:03.650Z,185
2018-06-23T08:41:09.335Z,169
2018-06-23T08:42:14.496Z,161
2018-06-23T08:43:20.308Z,145
2018-06-23T08:44:25.190Z,161
2018-06-23T08:45:30.371Z,161
2018-06-23T08:46:35.247Z,161
2018-06-23T08:47:40.408Z,145
2018-06-23T08:48:45.652Z,145
2018-06-23T08:49:50.263Z,112
2018-06-23T08:50:55.152Z,95
2018-06-23T08:52:00.572Z,95
2018-06-23T08:53:05.731Z,95
2018-06-23T08:54:10.622Z,121
2018-06-23T08:55:16.329Z,121
2018-06-23T08:56:21.477Z,128
2018-06-23T08:57:26.987Z,201
2018-06-23T08:58:32.464Z,233
2018-06-23T08:59:37.641Z,225
2018-06-23T09:00:42.877Z,209
2018-06-23T09:01:48.510Z,209
2018-06-23T09:02:54.716Z,200
2018-06-23T09:03:59.577Z,224
2018-06-23T09:05:04.757Z,361
2018-06-23T09:06:10.211Z,456
2018-06-23T09:07:15.689Z,257
2018-06-23T09:08:20.818Z,233
2018-06-23T09:09:41.192Z,209
2018-06-23T09:10:46.082Z,225
2018-06-23T09:11:50.959Z,266
2018-06-23T09:12:55.904Z,266
2018-06-23T09:14:01.374Z,289
2018-06-23T09:15:06.691Z,344
2018-06-23T09:16:12.241Z,394
2018-06-23T09:17:17.390Z,497
2018-06-23T09:18:22.557Z,520
2018-06-23T09:19:27.975Z,529
2018-06-23T09:20:33.167Z,473
2018-06-23T09:21:38.297Z,473
2018-06-23T09:22:43.452Z,321
2018-06-23T09:23:48.614Z,264
2018-06-23T09:24:54.453Z,297
2018-06-23T09:26:00.286Z,392
2018-06-23T09:27:04.943Z,280
2018-06-23T09:28:10.162Z,224
2018-06-23T09:29:15.602Z,183
2018-06-23T09:30:20.490Z,159
2018-06-23T09:31:26.020Z,176
2018-06-23T09:32:31.489Z,216
2018-06-23T09:33:37.356Z,289
2018-06-23T09:34:42.239Z,289
2018-06-23T09:35:47.672Z,240
2018-06-23T09:36:52.856Z,257
2018-06-23T09:37:58.017Z,304
2018-06-23T09:39:02.908Z,377
2018-06-23T09:40:08.573Z,344
2018-06-23T09:41:13.450Z,337
2018-06-23T09:42:18.893Z,304
2018-06-23T09:43:24.731Z,449
2018-06-23T09:44:29.627Z,473
2018-06-23T09:45:35.137Z,480
2018-06-23T09:46:40.038Z,361
2018-06-23T09:47:45.232Z,344
2018-06-23T09:48:50.656Z,328
2018-06-23T09:49:55.556Z,328
2018-06-23T09:51:01.017Z,337
2018-06-23T09:52:06.475Z,297
2018-06-23T09:53:11.646Z,297
2018-06-23T09:54:16.808Z,321
2018-06-23T09:55:21.939Z,361
2018-06-23T09:56:26.819Z,385
2018-06-23T09:57:32.054Z,344
2018-06-23T09:58:36.918Z,361
2018-06-23T09:59:41.794Z,377
2018-06-23T10:00:46.751Z,377
2018-06-23T10:01:52.196Z,394
2018-06-23T10:02:57.094Z,401
2018-06-23T10:04:01.937Z,425
2018-06-23T10:05:07.105Z,458
2018-06-23T10:06:11.711Z,441
2018-06-23T10:07:17.999Z,425
2018-06-23T10:08:23.848Z,392
2018-06-23T10:09:29.299Z,368
2018-06-23T10:10:34.200Z,337
2018-06-23T10:11:39.124Z,288
2018-06-23T10:12:44.814Z,368
2018-06-23T10:13:50.264Z,247
2018-06-23T10:14:55.176Z,216
2018-06-23T10:16:00.716Z,183
2018-06-23T10:17:06.175Z,192
2018-06-23T10:18:11.614Z,192
2018-06-23T10:19:17.328Z,216
2018-06-23T10:20:22.485Z,257
2018-06-23T10:21:28.267Z,273
2018-06-23T10:22:33.511Z,249
2018-06-23T10:23:38.670Z,233
2018-06-23T10:24:44.231Z,224
2018-06-23T10:25:49.416Z,240
2018-06-23T10:26:54.864Z,224
2018-06-23T10:28:00.096Z,216
2018-06-23T10:29:05.540Z,216
2018-06-23T10:30:09.860Z,216
2018-06-23T10:31:15.440Z,216
2018-06-23T10:32:20.882Z,216
2018-06-23T10:33:26.326Z,233
2018-06-23T10:34:31.489Z,240
2018-06-23T10:35:36.653Z,273
2018-06-23T10:36:42.548Z,313
2018-06-23T10:37:47.726Z,337
2018-06-23T10:38:52.892Z,328
2018-06-23T10:39:58.644Z,353
2018-06-23T10:41:04.106Z,321
2018-06-23T10:42:08.992Z,297
2018-06-23T10:43:14.845Z,257
2018-06-23T10:44:19.748Z,233
2018-06-23T10:46:44.980Z,233
2018-06-23T10:47:50.439Z,216
2018-06-23T10:48:55.669Z,233
2018-06-23T10:50:00.553Z,249
2018-06-23T10:51:05.433Z,240
2018-06-23T10:52:10.958Z,273
2018-06-23T10:53:16.395Z,289
2018-06-23T10:54:21.841Z,280
2018-06-23T10:55:27.545Z,289
2018-06-23T10:56:33.006Z,257
2018-06-23T10:57:38.957Z,224
2018-06-23T10:58:44.151Z,216
2018-06-23T10:59:49.613Z,200
2018-06-23T11:00:55.029Z,216
2018-06-23T11:02:00.203Z,249
2018-06-23T11:03:05.360Z,249
2018-06-23T11:04:10.490Z,216
2018-06-23T11:05:15.385Z,200
2018-06-23T11:06:20.550Z,209
2018-06-23T11:07:26.519Z,192
2018-06-23T11:08:31.962Z,192
2018-06-23T11:09:37.581Z,192
2018-06-23T11:10:42.471Z,192
2018-06-23T11:11:47.936Z,225
2018-06-23T11:12:53.079Z,225
2018-06-23T11:13:57.963Z,216
2018-06-23T11:15:02.857Z,216
2018-06-23T11:16:07.984Z,216
2018-06-23T11:17:12.008Z,216
2018-06-23T11:18:17.158Z,216
2018-06-23T11:19:23.002Z,216
2018-06-23T11:20:28.173Z,216
2018-06-23T11:21:33.739Z,249
2018-06-23T11:22:39.193Z,257
2018-06-23T11:23:44.644Z,306
2018-06-23T11:24:50.078Z,313
2018-06-23T11:25:54.953Z,313
2018-06-23T11:27:00.401Z,297
2018-06-23T11:28:05.810Z,289
2018-06-23T11:29:10.983Z,240
2018-06-23T11:30:16.425Z,233
2018-06-23T11:31:21.970Z,233
2018-06-23T11:32:27.124Z,224
2018-06-23T11:33:32.683Z,233
2018-06-23T11:34:38.124Z,216
2018-06-23T11:35:43.279Z,233
2018-06-23T11:36:48.812Z,249
2018-06-23T11:37:54.263Z,257
2018-06-23T11:38:59.717Z,273
2018-06-23T11:40:04.911Z,273
2018-06-23T11:41:09.601Z,280
2018-06-23T11:42:14.734Z,313
2018-06-23T11:43:20.576Z,321
2018-06-23T11:44:24.879Z,337
2018-06-23T11:45:30.187Z,377
2018-06-23T11:46:35.776Z,427
2018-06-23T11:47:41.419Z,410
2018-06-23T11:48:46.864Z,361
2018-06-23T11:49:52.316Z,353
2018-06-23T11:50:57.207Z,337
2018-06-23T11:52:02.477Z,337
2018-06-23T11:53:08.119Z,321
2018-06-23T11:54:13.306Z,297
2018-06-23T11:55:18.457Z,240
2018-06-23T11:56:23.615Z,200
2018-06-23T11:57:29.322Z,176
2018-06-23T11:58:34.484Z,159
2018-06-23T11:59:39.955Z,159
2018-06-23T12:00:45.646Z,169
2018-06-23T12:01:50.643Z,169
2018-06-23T12:02:55.618Z,185
2018-06-23T12:04:01.340Z,216
2018-06-23T12:05:06.781Z,289
2018-06-23T12:06:12.227Z,297
2018-06-23T12:07:17.664Z,337
2018-06-23T12:08:23.119Z,353
2018-06-23T12:09:28.950Z,337
2018-06-23T12:10:34.133Z,321
2018-06-23T12:11:39.627Z,321
2018-06-23T12:12:45.048Z,321
2018-06-23T12:13:50.255Z,321
2018-06-23T12:14:55.454Z,321
2018-06-23T12:16:00.879Z,328
2018-06-23T12:17:05.187Z,280
2018-06-23T12:18:10.631Z,257
2018-06-23T12:19:16.245Z,233
2018-06-23T12:20:21.697Z,200
2018-06-23T12:21:27.320Z,200
2018-06-23T12:22:32.493Z,216
2018-06-23T12:23:37.941Z,216
2018-06-23T12:24:43.493Z,233
2018-06-23T12:25:48.663Z,249
2018-06-23T12:26:54.105Z,257
2018-06-23T12:27:59.522Z,297
2018-06-23T12:29:04.700Z,321
2018-06-23T12:30:09.853Z,337
2018-06-23T12:31:14.812Z,361
2018-06-23T12:32:20.282Z,394
2018-06-23T12:33:39.924Z,513
2018-06-23T12:34:45.377Z,506
2018-06-23T12:35:50.277Z,513
2018-06-23T12:36:56.048Z,561
2018-06-23T12:38:01.524Z,458
2018-06-23T12:39:05.862Z,497
2018-06-23T12:40:11.087Z,537
2018-06-23T12:41:16.521Z,487
2018-06-23T12:42:21.995Z,487
2018-06-23T12:43:27.409Z,312
2018-06-23T12:44:32.876Z,273
2018-06-23T12:45:38.084Z,273
2018-06-23T12:46:42.967Z,297
2018-06-23T12:47:48.125Z,344
2018-06-23T12:48:53.919Z,385
2018-06-23T12:49:59.085Z,418
2018-06-23T12:51:04.287Z,450
2018-06-23T12:52:09.862Z,458
2018-06-23T12:53:15.031Z,489
2018-06-23T12:54:20.472Z,522
2018-06-23T12:55:25.755Z,506
2018-06-23T12:56:30.649Z,482
2018-06-23T12:57:35.769Z,465
2018-06-23T12:58:41.228Z,498
2018-06-23T12:59:46.132Z,482
2018-06-23T13:00:51.279Z,432
2018-06-23T13:01:56.145Z,409
2018-06-23T13:03:01.591Z,368
2018-06-23T13:04:07.293Z,368
2018-06-23T13:05:12.458Z,385
2018-06-23T13:06:17.648Z,401
2018-06-23T13:07:22.489Z,385
2018-06-23T13:08:27.377Z,385
2018-06-23T13:09:33.125Z,418
2018-06-23T13:10:38.284Z,465
2018-06-23T13:11:43.476Z,465
2018-06-23T13:12:49.002Z,458
2018-06-23T13:13:54.464Z,441
2018-06-23T13:14:59.689Z,425
2018-06-23T13:16:04.883Z,401
2018-06-23T13:17:09.489Z,385
2018-06-23T13:18:14.651Z,394
2018-06-23T13:19:20.359Z,416
2018-06-23T13:20:25.815Z,368
2018-06-23T13:21:31.249Z,280
2018-06-23T13:22:35.855Z,297
2018-06-23T13:23:40.733Z,297
2018-06-23T13:24:46.030Z,224
2018-06-23T13:25:50.890Z,209
2018-06-23T13:26:56.245Z,176
2018-06-23T13:28:02.039Z,192
2018-06-23T13:29:07.329Z,192
2018-06-23T13:30:12.778Z,176
2018-06-23T13:31:18.340Z,209
2018-06-23T13:32:23.663Z,233
2018-06-23T13:33:30.124Z,266
2018-06-23T13:34:34.995Z,257
2018-06-23T13:35:39.873Z,313
2018-06-23T13:36:45.381Z,353
2018-06-23T13:37:50.542Z,353
2018-06-23T13:38:55.988Z,353
2018-06-23T13:40:01.405Z,377
2018-06-23T13:41:06.018Z,450
2018-06-23T13:42:11.182Z,450
2018-06-23T13:43:16.618Z,458
2018-06-23T13:44:22.057Z,425
2018-06-23T13:45:27.209Z,313
2018-06-23T13:46:32.359Z,313
2018-06-23T13:47:37.526Z,447
2018-06-23T13:48:42.941Z,313
2018-06-23T13:49:48.379Z,385
2018-06-23T13:50:53.313Z,313
2018-06-23T13:51:59.012Z,313
2018-06-23T13:53:04.188Z,337
2018-06-23T13:54:09.062Z,386
2018-06-23T13:55:14.644Z,394
2018-06-23T13:56:20.085Z,377
2018-06-23T13:58:45.143Z,449
2018-06-23T13:59:50.304Z,416
2018-06-23T14:00:56.040Z,257
2018-06-23T14:02:00.910Z,240
2018-06-23T14:03:06.381Z,224
2018-06-23T14:04:11.790Z,233
2018-06-23T14:05:16.682Z,257
2018-06-23T14:06:22.133Z,313
2018-06-23T14:07:27.640Z,353
2018-06-23T14:08:32.806Z,370
2018-06-23T14:09:38.395Z,353
2018-06-23T14:10:43.544Z,370
2018-06-23T14:11:48.431Z,442
2018-06-23T14:12:54.397Z,538
2018-06-23T14:13:59.564Z,617
2018-06-23T14:15:04.480Z,474
2018-06-23T14:16:09.870Z,464
2018-06-23T14:17:15.037Z,304
2018-06-23T14:18:20.202Z,280
2018-06-23T14:19:25.459Z,273
2018-06-23T14:20:30.072Z,257
2018-06-23T14:21:35.513Z,297
2018-06-23T14:22:41.024Z,289
2018-06-23T14:23:46.208Z,313
2018-06-23T14:24:51.345Z,370
2018-06-23T14:25:56.218Z,370
2018-06-23T14:27:01.107Z,353
2018-06-23T14:28:06.656Z,346
2018-06-23T14:29:11.830Z,353
2018-06-23T14:30:17.268Z,344
2018-06-23T14:31:22.333Z,361
2018-06-23T14:32:27.885Z,377
2018-06-23T14:33:33.861Z,321
2018-06-23T14:34:39.017Z,280
2018-06-23T14:35:43.895Z,330
2018-06-23T14:36:49.408Z,321
2018-06-23T14:37:54.584Z,394
2018-06-23T14:39:00.026Z,450
2018-06-23T14:40:05.059Z,474
2018-06-23T14:41:10.243Z,482
2018-06-23T14:42:15.389Z,489
2018-06-23T14:43:21.084Z,465
2018-06-23T14:44:25.973Z,441
2018-06-23T14:45:31.316Z,392
2018-06-23T14:46:36.474Z,304
2018-06-23T14:47:41.921Z,321
2018-06-23T14:48:47.202Z,264
2018-06-23T14:49:52.646Z,297
2018-06-23T14:50:57.514Z,337
2018-06-23T14:52:03.104Z,361
2018-06-23T14:53:08.013Z,377
2018-06-23T14:54:13.192Z,410
2018-06-23T14:55:18.994Z,418
2018-06-23T14:56:23.307Z,418
2018-06-23T14:57:28.915Z,434
2018-06-23T14:58:34.359Z,458
2018-06-23T14:59:39.561Z,491
2018-06-23T15:00:44.413Z,515
2018-06-23T15:01:49.866Z,498
2018-06-23T15:02:55.368Z,482
2018-06-23T15:04:01.074Z,474
2018-06-23T15:05:06.300Z,410
2018-06-23T15:06:11.195Z,423
2018-06-23T15:07:17.053Z,280
2018-06-23T15:08:22.210Z,273
2018-06-23T15:09:27.397Z,233
2018-06-23T15:10:32.321Z,216
2018-06-23T15:11:37.794Z,233
2018-06-23T15:12:43.199Z,266
2018-06-23T15:13:48.647Z,257
2018-06-23T15:14:53.529Z,257
2018-06-23T15:15:58.923Z,306
2018-06-23T15:17:04.357Z,353
2018-06-23T15:18:09.534Z,394
2018-06-23T15:19:15.231Z,434
2018-06-23T15:20:20.389Z,507
2018-06-23T15:21:40.644Z,667
2018-06-23T15:22:45.815Z,722
2018-06-23T15:23:51.262Z,674
2018-06-23T15:24:56.819Z,547
2018-06-23T15:26:01.721Z,714
2018-06-23T15:27:06.659Z,483
2018-06-23T15:28:12.565Z,458
2018-06-23T15:29:17.734Z,625
2018-06-23T15:30:23.180Z,634
2018-06-23T15:31:28.561Z,658